sensor_id;sensor_type;location;lat;lon;timestamp;temperature;humidity
18690;DHT22;9782;52.930;15.562;2023-02-28T06:15:30;-3.50;99.90
18690;DHT22;9782;52.930;15.562;2023-02-28T06:17:57;-3.50;99.90
18690;DHT22;9782;52.930;15.562;2023-02-28T06:20:24;-3.40;99.90
18690;DHT22;9782;52.930;15.562;2023-02-28T06:22:51;-3.30;99.90
18690;DHT22;9782;52.930;15.562;2023-02-28T06:25:20;-3.30;99.90
18690;DHT22;9782;52.930;15.562;2023-02-28T06:27:47;-3.20;99.90
18690;DHT22;9782;52.930;15.562;2023-02-28T06:30:14;-3.10;99.90
18690;DHT22;9782;52.930;15.562;2023-02-28T06:32:43;-3.10;99.90
18690;DHT22;9782;52.930;15.562;2023-02-28T06:35:10;-3.00;99.90
18690;DHT22;9782;52.930;15.562;2023-02-28T06:37:36;-3.00;99.90
18690;DHT22;9782;52.930;15.562;2023-02-28T06:40:04;-2.90;99.90
18690;DHT22;9782;52.930;15.562;2023-02-28T06:42:32;-2.90;99.90
18690;DHT22;9782;52.930;15.562;2023-02-28T06:44:59;-2.80;99.90
18690;DHT22;9782;52.930;15.562;2023-02-28T06:47:30;-2.80;99.90
18690;DHT22;9782;52.930;15.562;2023-02-28T06:49:58;-2.70;99.90
18690;DHT22;9782;52.930;15.562;2023-02-28T06:52:26;-2.70;99.90
18690;DHT22;9782;52.930;15.562;2023-02-28T06:54:53;-2.60;99.90
18690;DHT22;9782;52.930;15.562;2023-02-28T06:57:25;-2.50;99.90
18690;DHT22;9782;52.930;15.562;2023-02-28T06:59:52;-2.40;99.90
18690;DHT22;9782;52.930;15.562;2023-02-28T07:02:18;-2.30;99.90
18690;DHT22;9782;52.930;15.562;2023-02-28T07:04:45;-2.20;99.90
18690;DHT22;9782;52.930;15.562;2023-02-28T07:07:13;-2.10;99.90
18690;DHT22;9782;52.930;15.562;2023-02-28T07:09:40;-2.00;99.90
18690;DHT22;9782;52.930;15.562;2023-02-28T07:12:07;-1.90;99.90
18690;DHT22;9782;52.930;15.562;2023-02-28T07:14:34;-1.80;99.90
18690;DHT22;9782;52.930;15.562;2023-02-28T07:17:02;-1.70;99.90
18690;DHT22;9782;52.930;15.562;2023-02-28T07:19:29;-1.60;99.90
18690;DHT22;9782;52.930;15.562;2023-02-28T07:21:56;-1.50;99.90
18690;DHT22;9782;52.930;15.562;2023-02-28T07:24:24;-1.40;99.90
18690;DHT22;9782;52.930;15.562;2023-02-28T07:26:53;-1.30;99.90
18690;DHT22;9782;52.930;15.562;2023-02-28T07:29:20;-1.20;99.90
18690;DHT22;9782;52.930;15.562;2023-02-28T07:31:47;-1.00;99.90
18690;DHT22;9782;52.930;15.562;2023-02-28T07:34:16;-0.90;99.90
18690;DHT22;9782;52.930;15.562;2023-02-28T07:36:42;-0.90;99.90
18690;DHT22;9782;52.930;15.562;2023-02-28T07:39:09;-0.80;99.90
18690;DHT22;9782;52.930;15.562;2023-02-28T07:41:38;-0.70;99.90
18690;DHT22;9782;52.930;15.562;2023-02-28T07:44:09;-0.60;99.90
18690;DHT22;9782;52.930;15.562;2023-02-28T07:46:35;-0.50;99.90
18690;DHT22;9782;52.930;15.562;2023-02-28T07:49:02;-0.40;99.90
18690;DHT22;9782;52.930;15.562;2023-02-28T07:51:30;-0.20;99.90
18690;DHT22;9782;52.930;15.562;2023-02-28T07:53:57;-0.10;99.90
18690;DHT22;9782;52.930;15.562;2023-02-28T07:56:24;0.00;99.90
18690;DHT22;9782;52.930;15.562;2023-02-28T07:58:52;0.20;99.90
18690;DHT22;9782;52.930;15.562;2023-02-28T08:01:19;0.30;99.90
18690;DHT22;9782;52.930;15.562;2023-02-28T08:03:46;0.40;99.90
18690;DHT22;9782;52.930;15.562;2023-02-28T08:06:17;0.50;99.90
18690;DHT22;9782;52.930;15.562;2023-02-28T08:08:44;0.60;99.90
18690;DHT22;9782;52.930;15.562;2023-02-28T08:11:11;0.80;99.90
18690;DHT22;9782;52.930;15.562;2023-02-28T08:13:37;0.80;99.90
18690;DHT22;9782;52.930;15.562;2023-02-28T08:16:06;0.90;99.90
18690;DHT22;9782;52.930;15.562;2023-02-28T08:18:33;1.00;99.90
18690;DHT22;9782;52.930;15.562;2023-02-28T08:21:04;1.10;99.90
18690;DHT22;9782;52.930;15.562;2023-02-28T08:23:31;1.20;99.90
18690;DHT22;9782;52.930;15.562;2023-02-28T08:25:59;1.40;99.90
18690;DHT22;9782;52.930;15.562;2023-02-28T08:28:25;1.50;99.90
18690;DHT22;9782;52.930;15.562;2023-02-28T08:30:52;1.50;99.90
18690;DHT22;9782;52.930;15.562;2023-02-28T08:33:21;1.70;99.90
18690;DHT22;9782;52.930;15.562;2023-02-28T08:35:48;1.70;95.80
18690;DHT22;9782;52.930;15.562;2023-02-28T08:38:15;1.90;37.40
18690;DHT22;9782;52.930;15.562;2023-02-28T08:40:41;1.90;2.20
18690;DHT22;9782;52.930;15.562;2023-02-28T08:43:08;2.00;1.00
18690;DHT22;9782;52.930;15.562;2023-02-28T08:45:35;2.10;1.00
18690;DHT22;9782;52.930;15.562;2023-02-28T08:48:02;2.10;1.00
18690;DHT22;9782;52.930;15.562;2023-02-28T08:50:30;2.20;1.00
18690;DHT22;9782;52.930;15.562;2023-02-28T08:52:57;2.20;1.00
18690;DHT22;9782;52.930;15.562;2023-02-28T08:55:23;2.30;1.00
18690;DHT22;9782;52.930;15.562;2023-02-28T08:57:50;2.30;1.00
18690;DHT22;9782;52.930;15.562;2023-02-28T09:00:18;2.40;1.00
18690;DHT22;9782;52.930;15.562;2023-02-28T09:02:45;2.40;1.00
18690;DHT22;9782;52.930;15.562;2023-02-28T09:05:12;2.50;1.00
18690;DHT22;9782;52.930;15.562;2023-02-28T09:07:40;2.60;1.00
18690;DHT22;9782;52.930;15.562;2023-02-28T09:10:08;2.70;1.00
18690;DHT22;9782;52.930;15.562;2023-02-28T09:12:35;2.80;1.00
18690;DHT22;9782;52.930;15.562;2023-02-28T09:15:02;2.80;1.00
18690;DHT22;9782;52.930;15.562;2023-02-28T09:17:29;2.80;1.00
18690;DHT22;9782;52.930;15.562;2023-02-28T09:19:55;2.90;1.00
18690;DHT22;9782;52.930;15.562;2023-02-28T09:22:22;3.00;1.00
18690;DHT22;9782;52.930;15.562;2023-02-28T09:24:50;3.10;1.00
18690;DHT22;9782;52.930;15.562;2023-02-28T09:27:17;3.10;1.00
18690;DHT22;9782;52.930;15.562;2023-02-28T09:29:44;3.20;1.00
18690;DHT22;9782;52.930;15.562;2023-02-28T09:32:11;3.30;1.00
18690;DHT22;9782;52.930;15.562;2023-02-28T09:34:37;3.30;1.00
18690;DHT22;9782;52.930;15.562;2023-02-28T09:37:04;3.40;1.00
18690;DHT22;9782;52.930;15.562;2023-02-28T09:39:31;3.50;99.90
18690;DHT22;9782;52.930;15.562;2023-02-28T09:42:00;3.50;99.90
18690;DHT22;9782;52.930;15.562;2023-02-28T09:44:30;3.50;99.90
18690;DHT22;9782;52.930;15.562;2023-02-28T09:47:01;3.60;99.90
18690;DHT22;9782;52.930;15.562;2023-02-28T09:49:35;3.60;99.90
18690;DHT22;9782;52.930;15.562;2023-02-28T09:52:04;3.70;99.90
18690;DHT22;9782;52.930;15.562;2023-02-28T09:54:35;3.70;99.90
18690;DHT22;9782;52.930;15.562;2023-02-28T09:57:07;3.70;99.90
18690;DHT22;9782;52.930;15.562;2023-02-28T09:59:45;3.70;99.90
18690;DHT22;9782;52.930;15.562;2023-02-28T10:02:39;3.80;99.90
18690;DHT22;9782;52.930;15.562;2023-02-28T10:05:09;3.80;99.90
18690;DHT22;9782;52.930;15.562;2023-02-28T10:07:56;3.90;99.90
18690;DHT22;9782;52.930;15.562;2023-02-28T10:10:31;3.90;99.90
18690;DHT22;9782;52.930;15.562;2023-02-28T10:13:04;4.00;99.90
18690;DHT22;9782;52.930;15.562;2023-02-28T10:15:34;4.00;99.90
18690;DHT22;9782;52.930;15.562;2023-02-28T10:18:04;4.00;99.90
18690;DHT22;9782;52.930;15.562;2023-02-28T10:20:34;4.00;99.90
18690;DHT22;9782;52.930;15.562;2023-02-28T10:23:05;4.10;99.90
18690;DHT22;9782;52.930;15.562;2023-02-28T10:25:38;4.10;99.90
18690;DHT22;9782;52.930;15.562;2023-02-28T10:28:13;4.20;99.90
18690;DHT22;9782;52.930;15.562;2023-02-28T10:30:43;4.10;99.90
18690;DHT22;9782;52.930;15.562;2023-02-28T10:33:23;4.20;99.90
18690;DHT22;9782;52.930;15.562;2023-02-28T10:35:51;4.20;99.90
18690;DHT22;9782;52.930;15.562;2023-02-28T10:38:20;4.30;99.90
18690;DHT22;9782;52.930;15.562;2023-02-28T10:40:47;4.30;99.90
18690;DHT22;9782;52.930;15.562;2023-02-28T10:43:21;4.40;99.90
18690;DHT22;9782;52.930;15.562;2023-02-28T10:45:58;4.40;99.90
18690;DHT22;9782;52.930;15.562;2023-02-28T10:48:30;4.40;99.90
18690;DHT22;9782;52.930;15.562;2023-02-28T10:50:58;4.40;99.90
18690;DHT22;9782;52.930;15.562;2023-02-28T10:53:32;4.50;99.90
18690;DHT22;9782;52.930;15.562;2023-02-28T10:56:01;4.50;99.90
18690;DHT22;9782;52.930;15.562;2023-02-28T10:58:31;4.50;99.90
18690;DHT22;9782;52.930;15.562;2023-02-28T11:00:59;4.60;99.90
18690;DHT22;9782;52.930;15.562;2023-02-28T11:03:31;4.60;99.90
18690;DHT22;9782;52.930;15.562;2023-02-28T11:06:04;4.60;99.90
18690;DHT22;9782;52.930;15.562;2023-02-28T11:08:31;4.60;99.90
18690;DHT22;9782;52.930;15.562;2023-02-28T11:11:03;4.60;99.90
18690;DHT22;9782;52.930;15.562;2023-02-28T11:13:33;4.70;99.90
18690;DHT22;9782;52.930;15.562;2023-02-28T11:16:03;4.70;99.90
18690;DHT22;9782;52.930;15.562;2023-02-28T11:18:37;4.90;99.90
18690;DHT22;9782;52.930;15.562;2023-02-28T11:21:05;4.90;99.90
18690;DHT22;9782;52.930;15.562;2023-02-28T11:23:35;4.90;99.90
18690;DHT22;9782;52.930;15.562;2023-02-28T11:26:04;4.90;99.90
18690;DHT22;9782;52.930;15.562;2023-02-28T11:28:38;4.90;99.90
18690;DHT22;9782;52.930;15.562;2023-02-28T11:31:17;4.90;99.90
18690;DHT22;9782;52.930;15.562;2023-02-28T11:33:47;4.90;99.90
18690;DHT22;9782;52.930;15.562;2023-02-28T11:36:19;4.90;99.90
18690;DHT22;9782;52.930;15.562;2023-02-28T11:38:47;4.90;99.90
18690;DHT22;9782;52.930;15.562;2023-02-28T11:41:27;5.00;99.90
18690;DHT22;9782;52.930;15.562;2023-02-28T11:44:05;5.00;99.90
18690;DHT22;9782;52.930;15.562;2023-02-28T11:46:37;5.00;99.90
18690;DHT22;9782;52.930;15.562;2023-02-28T11:49:20;5.10;99.90
18690;DHT22;9782;52.930;15.562;2023-02-28T11:51:53;5.10;99.90
18690;DHT22;9782;52.930;15.562;2023-02-28T11:54:46;5.10;99.90
18690;DHT22;9782;52.930;15.562;2023-02-28T11:57:30;5.10;99.90
18690;DHT22;9782;52.930;15.562;2023-02-28T12:00:06;5.00;99.90
18690;DHT22;9782;52.930;15.562;2023-02-28T12:02:43;5.00;99.90
18690;DHT22;9782;52.930;15.562;2023-02-28T12:05:23;5.00;99.90
18690;DHT22;9782;52.930;15.562;2023-02-28T12:07:59;5.10;99.90
18690;DHT22;9782;52.930;15.562;2023-02-28T12:10:36;5.20;99.90
18690;DHT22;9782;52.930;15.562;2023-02-28T12:13:13;5.20;99.90
18690;DHT22;9782;52.930;15.562;2023-02-28T12:16:09;5.20;99.90
18690;DHT22;9782;52.930;15.562;2023-02-28T12:21:41;5.30;99.90
18690;DHT22;9782;52.930;15.562;2023-02-28T12:27:25;5.40;99.90
18690;DHT22;9782;52.930;15.562;2023-02-28T12:29:56;5.50;99.90
18690;DHT22;9782;52.930;15.562;2023-02-28T12:32:30;5.50;99.90
18690;DHT22;9782;52.930;15.562;2023-02-28T12:35:02;5.70;99.90
18690;DHT22;9782;52.930;15.562;2023-02-28T12:37:36;5.70;99.90
18690;DHT22;9782;52.930;15.562;2023-02-28T12:40:11;5.70;99.90
18690;DHT22;9782;52.930;15.562;2023-02-28T12:42:41;5.60;99.90
18690;DHT22;9782;52.930;15.562;2023-02-28T12:45:12;5.70;99.90
18690;DHT22;9782;52.930;15.562;2023-02-28T12:47:44;5.60;99.90
18690;DHT22;9782;52.930;15.562;2023-02-28T12:50:13;5.60;99.90
18690;DHT22;9782;52.930;15.562;2023-02-28T12:52:47;5.60;99.90
18690;DHT22;9782;52.930;15.562;2023-02-28T12:55:20;5.50;99.90
18690;DHT22;9782;52.930;15.562;2023-02-28T12:57:53;5.60;99.90
18690;DHT22;9782;52.930;15.562;2023-02-28T13:00:27;5.70;99.90
18690;DHT22;9782;52.930;15.562;2023-02-28T13:03:32;5.80;99.90
18690;DHT22;9782;52.930;15.562;2023-02-28T13:06:20;5.70;99.90
18690;DHT22;9782;52.930;15.562;2023-02-28T13:09:07;5.70;98.30
18690;DHT22;9782;52.930;15.562;2023-02-28T13:11:39;5.70;96.10
18690;DHT22;9782;52.930;15.562;2023-02-28T13:14:19;5.70;94.60
18690;DHT22;9782;52.930;15.562;2023-02-28T13:16:55;5.70;95.00
18690;DHT22;9782;52.930;15.562;2023-02-28T13:19:25;5.70;93.10
18690;DHT22;9782;52.930;15.562;2023-02-28T13:21:54;5.80;92.00
18690;DHT22;9782;52.930;15.562;2023-02-28T13:24:43;5.80;90.10
18690;DHT22;9782;52.930;15.562;2023-02-28T13:29:59;5.80;87.80
18690;DHT22;9782;52.930;15.562;2023-02-28T13:32:36;5.90;83.90
18690;DHT22;9782;52.930;15.562;2023-02-28T13:35:36;5.90;85.30
18690;DHT22;9782;52.930;15.562;2023-02-28T13:38:33;5.80;83.40
18690;DHT22;9782;52.930;15.562;2023-02-28T13:44:06;5.80;79.20
18690;DHT22;9782;52.930;15.562;2023-02-28T13:46:35;5.70;78.20
18690;DHT22;9782;52.930;15.562;2023-02-28T13:49:25;5.70;78.20
18690;DHT22;9782;52.930;15.562;2023-02-28T13:52:00;5.70;80.60
18690;DHT22;9782;52.930;15.562;2023-02-28T13:54:39;5.70;76.10
18690;DHT22;9782;52.930;15.562;2023-02-28T13:57:19;5.70;95.20
18690;DHT22;9782;52.930;15.562;2023-02-28T13:59:58;5.70;76.00
18690;DHT22;9782;52.930;15.562;2023-02-28T14:02:51;5.70;73.30
18690;DHT22;9782;52.930;15.562;2023-02-28T14:05:27;5.70;73.10
18690;DHT22;9782;52.930;15.562;2023-02-28T14:07:58;5.70;73.80
18690;DHT22;9782;52.930;15.562;2023-02-28T14:10:28;5.70;72.40
18690;DHT22;9782;52.930;15.562;2023-02-28T14:13:14;5.70;71.70
18690;DHT22;9782;52.930;15.562;2023-02-28T14:15:59;5.60;71.90
18690;DHT22;9782;52.930;15.562;2023-02-28T14:18:30;5.60;71.60
18690;DHT22;9782;52.930;15.562;2023-02-28T14:21:10;5.50;71.40
18690;DHT22;9782;52.930;15.562;2023-02-28T14:24:15;5.50;71.20
18690;DHT22;9782;52.930;15.562;2023-02-28T14:30:07;5.40;70.30
18690;DHT22;9782;52.930;15.562;2023-02-28T14:32:44;5.40;71.60
18690;DHT22;9782;52.930;15.562;2023-02-28T14:35:22;5.30;72.60
18690;DHT22;9782;52.930;15.562;2023-02-28T14:37:54;5.30;72.10
18690;DHT22;9782;52.930;15.562;2023-02-28T14:40:26;5.30;71.00
18690;DHT22;9782;52.930;15.562;2023-02-28T14:42:56;5.30;72.90
18690;DHT22;9782;52.930;15.562;2023-02-28T14:45:23;5.30;71.40
18690;DHT22;9782;52.930;15.562;2023-02-28T14:47:51;5.20;72.90
18690;DHT22;9782;52.930;15.562;2023-02-28T14:50:20;5.10;73.00
18690;DHT22;9782;52.930;15.562;2023-02-28T14:52:48;5.10;72.90
18690;DHT22;9782;52.930;15.562;2023-02-28T14:55:18;5.20;74.20
18690;DHT22;9782;52.930;15.562;2023-02-28T14:57:53;5.10;72.40
18690;DHT22;9782;52.930;15.562;2023-02-28T15:00:24;5.10;72.50
18690;DHT22;9782;52.930;15.562;2023-02-28T15:02:51;5.10;71.70
18690;DHT22;9782;52.930;15.562;2023-02-28T15:05:24;5.00;72.10
18690;DHT22;9782;52.930;15.562;2023-02-28T15:08:06;5.00;72.50
18690;DHT22;9782;52.930;15.562;2023-02-28T15:10:34;5.00;73.40
18690;DHT22;9782;52.930;15.562;2023-02-28T15:13:05;5.00;71.40
18690;DHT22;9782;52.930;15.562;2023-02-28T15:15:41;4.90;71.60
18690;DHT22;9782;52.930;15.562;2023-02-28T15:18:21;4.90;70.20
18690;DHT22;9782;52.930;15.562;2023-02-28T15:20:51;4.80;70.10
18690;DHT22;9782;52.930;15.562;2023-02-28T15:23:19;4.80;69.40
18690;DHT22;9782;52.930;15.562;2023-02-28T15:25:47;4.70;68.90
18690;DHT22;9782;52.930;15.562;2023-02-28T15:28:19;4.70;69.70
18690;DHT22;9782;52.930;15.562;2023-02-28T15:30:55;4.60;69.20
18690;DHT22;9782;52.930;15.562;2023-02-28T15:33:24;4.60;79.80
18690;DHT22;9782;52.930;15.562;2023-02-28T15:35:51;4.50;70.70
18690;DHT22;9782;52.930;15.562;2023-02-28T15:38:22;4.40;68.40
18690;DHT22;9782;52.930;15.562;2023-02-28T15:40:53;4.40;71.70
18690;DHT22;9782;52.930;15.562;2023-02-28T15:43:26;4.30;70.30
18690;DHT22;9782;52.930;15.562;2023-02-28T15:45:56;4.30;70.90
18690;DHT22;9782;52.930;15.562;2023-02-28T15:48:26;4.30;73.60
18690;DHT22;9782;52.930;15.562;2023-02-28T15:50:56;4.20;74.70
18690;DHT22;9782;52.930;15.562;2023-02-28T15:53:27;4.20;75.50
18690;DHT22;9782;52.930;15.562;2023-02-28T15:55:58;4.10;76.20
18690;DHT22;9782;52.930;15.562;2023-02-28T15:58:27;4.10;79.20
18690;DHT22;9782;52.930;15.562;2023-02-28T16:01:04;4.00;79.10
18690;DHT22;9782;52.930;15.562;2023-02-28T16:03:39;3.90;79.10
18690;DHT22;9782;52.930;15.562;2023-02-28T16:06:32;3.80;81.90
18690;DHT22;9782;52.930;15.562;2023-02-28T16:09:00;3.70;81.20
18690;DHT22;9782;52.930;15.562;2023-02-28T16:11:27;3.70;82.10
18690;DHT22;9782;52.930;15.562;2023-02-28T16:13:55;3.60;85.60
18690;DHT22;9782;52.930;15.562;2023-02-28T16:16:24;3.50;86.70
18690;DHT22;9782;52.930;15.562;2023-02-28T16:18:52;3.40;90.00
18690;DHT22;9782;52.930;15.562;2023-02-28T16:21:18;3.30;90.10
18690;DHT22;9782;52.930;15.562;2023-02-28T16:23:45;3.30;91.30
18690;DHT22;9782;52.930;15.562;2023-02-28T16:26:19;3.20;92.60
18690;DHT22;9782;52.930;15.562;2023-02-28T16:28:47;3.10;95.00
18690;DHT22;9782;52.930;15.562;2023-02-28T16:31:16;3.00;96.20
18690;DHT22;9782;52.930;15.562;2023-02-28T16:33:43;2.90;96.60
18690;DHT22;9782;52.930;15.562;2023-02-28T16:36:14;2.80;98.00
18690;DHT22;9782;52.930;15.562;2023-02-28T16:38:41;2.70;99.60
18690;DHT22;9782;52.930;15.562;2023-02-28T16:41:12;2.70;99.50
18690;DHT22;9782;52.930;15.562;2023-02-28T16:43:43;2.60;99.90
18690;DHT22;9782;52.930;15.562;2023-02-28T16:46:11;2.50;99.90
18690;DHT22;9782;52.930;15.562;2023-02-28T16:48:39;2.40;99.90
18690;DHT22;9782;52.930;15.562;2023-02-28T16:51:11;2.30;99.90
18690;DHT22;9782;52.930;15.562;2023-02-28T16:53:38;2.30;99.90
18690;DHT22;9782;52.930;15.562;2023-02-28T16:56:05;2.20;99.90
18690;DHT22;9782;52.930;15.562;2023-02-28T16:58:33;2.10;99.90
18690;DHT22;9782;52.930;15.562;2023-02-28T17:01:01;2.10;99.90
18690;DHT22;9782;52.930;15.562;2023-02-28T17:03:28;2.10;99.90
18690;DHT22;9782;52.930;15.562;2023-02-28T17:05:56;2.00;99.90
18690;DHT22;9782;52.930;15.562;2023-02-28T17:08:23;1.90;99.90
18690;DHT22;9782;52.930;15.562;2023-02-28T17:10:50;1.90;99.90
18690;DHT22;9782;52.930;15.562;2023-02-28T17:13:17;2.00;99.90
18690;DHT22;9782;52.930;15.562;2023-02-28T17:15:45;2.00;99.90
18690;DHT22;9782;52.930;15.562;2023-02-28T17:18:14;2.00;99.90
18690;DHT22;9782;52.930;15.562;2023-02-28T17:20:42;1.90;99.90
18690;DHT22;9782;52.930;15.562;2023-02-28T17:23:10;1.80;99.90
18690;DHT22;9782;52.930;15.562;2023-02-28T17:25:37;1.60;99.90
18690;DHT22;9782;52.930;15.562;2023-02-28T17:28:04;1.50;99.90
18690;DHT22;9782;52.930;15.562;2023-02-28T17:30:33;1.40;99.90
18690;DHT22;9782;52.930;15.562;2023-02-28T17:33:00;1.30;99.90
18690;DHT22;9782;52.930;15.562;2023-02-28T17:35:27;1.30;99.90
18690;DHT22;9782;52.930;15.562;2023-02-28T17:37:54;1.20;99.90
18690;DHT22;9782;52.930;15.562;2023-02-28T17:40:23;1.20;99.90
18690;DHT22;9782;52.930;15.562;2023-02-28T17:42:50;1.20;99.90
18690;DHT22;9782;52.930;15.562;2023-02-28T17:45:18;1.10;99.90
18690;DHT22;9782;52.930;15.562;2023-02-28T17:47:47;1.10;99.90
18690;DHT22;9782;52.930;15.562;2023-02-28T17:50:18;1.00;99.90
18690;DHT22;9782;52.930;15.562;2023-02-28T17:52:45;1.10;99.90
18690;DHT22;9782;52.930;15.562;2023-02-28T17:55:12;1.10;99.90
18690;DHT22;9782;52.930;15.562;2023-02-28T17:57:40;1.00;99.90
18690;DHT22;9782;52.930;15.562;2023-02-28T18:00:11;1.00;99.90
18690;DHT22;9782;52.930;15.562;2023-02-28T18:02:39;0.90;99.90
18690;DHT22;9782;52.930;15.562;2023-02-28T18:05:07;0.80;99.90
18690;DHT22;9782;52.930;15.562;2023-02-28T18:07:34;0.70;99.90
18690;DHT22;9782;52.930;15.562;2023-02-28T18:10:03;0.70;99.90
18690;DHT22;9782;52.930;15.562;2023-02-28T18:12:30;0.60;99.90
18690;DHT22;9782;52.930;15.562;2023-02-28T18:14:58;0.50;99.90
18690;DHT22;9782;52.930;15.562;2023-02-28T18:17:25;0.30;99.90
18690;DHT22;9782;52.930;15.562;2023-02-28T18:19:51;0.30;99.90
18690;DHT22;9782;52.930;15.562;2023-02-28T18:22:18;0.20;99.90
18690;DHT22;9782;52.930;15.562;2023-02-28T18:24:46;0.20;99.90
18690;DHT22;9782;52.930;15.562;2023-02-28T18:27:12;0.10;99.90
18690;DHT22;9782;52.930;15.562;2023-02-28T18:29:39;0.10;99.90
18690;DHT22;9782;52.930;15.562;2023-02-28T18:32:07;0.00;99.90
18690;DHT22;9782;52.930;15.562;2023-02-28T18:34:34;-0.10;99.90
18690;DHT22;9782;52.930;15.562;2023-02-28T18:37:01;-0.10;99.90
18690;DHT22;9782;52.930;15.562;2023-02-28T18:39:29;-0.20;99.90
18690;DHT22;9782;52.930;15.562;2023-02-28T18:41:56;-0.20;99.90
18690;DHT22;9782;52.930;15.562;2023-02-28T18:44:23;-0.30;99.90
18690;DHT22;9782;52.930;15.562;2023-02-28T18:46:49;-0.30;99.90
18690;DHT22;9782;52.930;15.562;2023-02-28T18:49:18;-0.30;99.90
18690;DHT22;9782;52.930;15.562;2023-02-28T18:51:45;-0.40;99.90
18690;DHT22;9782;52.930;15.562;2023-02-28T18:54:13;-0.30;99.90
18690;DHT22;9782;52.930;15.562;2023-02-28T18:56:40;-0.30;99.90
18690;DHT22;9782;52.930;15.562;2023-02-28T18:59:07;-0.40;99.90
18690;DHT22;9782;52.930;15.562;2023-02-28T19:01:34;-0.40;99.90
18690;DHT22;9782;52.930;15.562;2023-02-28T19:04:01;-0.40;99.90
